Terminal Aerodrome Forecast
Issued by NWS Pocatello, ID

Home | Current Version | Previous Version | Text Only | Print | Product List | Glossary On
Versions: 1 2 3 4 5 6 7 8 9 10 11 12 13 14 15 16 17 18
000
FTUS45 KPIH 230522
TAFIDA
TAF
KIDA 230522Z 2306/2406 20009KT P6SM VCSH OVC015
     FM230900 23007KT P6SM OVC015
     FM231800 23011KT P6SM SCT040
     FM240300 20015KT P6SM SCT080=

USA.gov is the U.S. government's official web portal to all federal, state and local government web resources and services.